createdAt,value
2018-12-04T00:00:06.421Z,99.20
2018-12-04T00:03:04.461Z,99.00
2018-12-04T00:06:02.626Z,99.00
2018-12-04T00:09:00.381Z,99.00
2018-12-04T00:11:58.273Z,99.00
2018-12-04T00:14:56.076Z,98.80
2018-12-04T00:17:53.931Z,99.00
2018-12-04T00:20:53.076Z,99.00
2018-12-04T00:23:51.026Z,99.00
2018-12-04T00:26:48.676Z,99.00
2018-12-04T00:29:46.682Z,99.00
2018-12-04T00:32:44.557Z,99.10
2018-12-04T00:35:42.250Z,98.80
2018-12-04T00:38:40.099Z,98.80
2018-12-04T00:41:37.847Z,98.80
2018-12-04T00:44:35.963Z,98.50
2018-12-04T00:47:33.803Z,98.20
2018-12-04T00:50:32.570Z,98.00
2018-12-04T00:53:31.328Z,97.70
2018-12-04T00:56:30.098Z,97.40
2018-12-04T00:59:27.959Z,96.50
2018-12-04T01:02:26.519Z,96.70
2018-12-04T01:05:24.494Z,96.40
2018-12-04T01:08:22.293Z,95.50
2018-12-04T01:11:20.096Z,95.80
2018-12-04T01:14:17.873Z,95.30
2018-12-04T01:17:15.692Z,94.60
2018-12-04T01:20:13.452Z,93.50
2018-12-04T01:23:11.291Z,93.20
2018-12-04T01:26:10.065Z,93.30
2018-12-04T01:29:07.843Z,93.50
2018-12-04T01:32:05.652Z,93.70
2018-12-04T01:35:03.555Z,93.90
2018-12-04T01:38:01.443Z,93.70
2018-12-04T01:41:00.293Z,94.20
2018-12-04T01:43:58.884Z,93.70
2018-12-04T01:46:56.822Z,93.50
2018-12-04T01:49:54.452Z,93.80
2018-12-04T01:52:52.317Z,93.90
2018-12-04T01:55:51.069Z,93.90
2018-12-04T01:58:48.956Z,92.70
2018-12-04T02:01:46.710Z,92.30
2018-12-04T02:04:45.449Z,91.20
2018-12-04T02:07:43.206Z,90.40
2018-12-04T02:10:41.098Z,90.10
2018-12-04T02:13:39.017Z,90.20
2018-12-04T02:16:36.803Z,90.00
2018-12-04T02:19:34.670Z,90.00
2018-12-04T02:22:32.727Z,89.30
2018-12-04T02:25:30.488Z,90.20
2018-12-04T02:28:31.200Z,90.60
2018-12-04T02:31:29.461Z,91.20
2018-12-04T02:34:28.330Z,91.60
2018-12-04T02:37:26.275Z,92.00
2018-12-04T02:40:24.220Z,92.40
2018-12-04T02:43:22.111Z,92.50
2018-12-04T02:46:19.913Z,92.70
2018-12-04T02:49:18.840Z,92.70
2018-12-04T02:52:16.502Z,92.60
2018-12-04T02:55:15.273Z,92.70
2018-12-04T02:58:13.829Z,92.30
2018-12-04T03:01:11.614Z,92.20
2018-12-04T03:04:09.455Z,91.50
2018-12-04T03:07:07.048Z,92.00
2018-12-04T03:10:05.766Z,92.50
2018-12-04T03:13:03.598Z,92.40
2018-12-04T03:16:02.287Z,92.20
2018-12-04T03:19:00.176Z,92.10
2018-12-04T03:21:58.008Z,92.50
2018-12-04T03:24:56.085Z,92.60
2018-12-04T03:27:53.921Z,92.80
2018-12-04T03:30:51.716Z,92.80
2018-12-04T03:33:57.413Z,93.00
2018-12-04T03:36:55.273Z,93.10
2018-12-04T03:39:53.116Z,92.70
2018-12-04T03:42:51.698Z,92.50
2018-12-04T03:45:49.470Z,92.30
2018-12-04T03:48:47.215Z,92.30
2018-12-04T03:51:44.960Z,92.50
2018-12-04T03:54:42.903Z,92.20
2018-12-04T03:57:40.769Z,91.80
2018-12-04T04:00:39.432Z,92.30
2018-12-04T04:03:37.197Z,92.10
2018-12-04T04:06:34.864Z,91.90
2018-12-04T04:09:32.621Z,92.20
2018-12-04T04:12:31.496Z,92.00
2018-12-04T04:15:29.379Z,91.70
2018-12-04T04:18:27.388Z,92.10
2018-12-04T04:24:31.199Z,91.60
2018-12-04T04:27:29.181Z,91.90
2018-12-04T04:30:28.038Z,91.90
2018-12-04T04:33:25.958Z,92.00
2018-12-04T04:36:24.796Z,92.50
2018-12-04T04:39:22.711Z,91.90
2018-12-04T04:42:20.600Z,92.00
2018-12-04T04:45:18.468Z,92.00
2018-12-04T04:48:16.363Z,91.70
2018-12-04T04:51:14.376Z,91.50
2018-12-04T04:54:12.427Z,91.20
2018-12-04T04:57:10.280Z,91.40
2018-12-04T05:00:08.333Z,91.10
2018-12-04T05:03:06.186Z,91.40
2018-12-04T05:06:04.200Z,90.60
2018-12-04T05:09:03.083Z,91.10
2018-12-04T05:12:01.736Z,91.00
2018-12-04T05:14:59.719Z,90.80
2018-12-04T05:17:58.567Z,90.90
2018-12-04T05:20:57.521Z,90.30
2018-12-04T05:23:55.491Z,90.90
2018-12-04T05:26:53.467Z,91.00
2018-12-04T05:29:51.273Z,90.70
2018-12-04T05:32:49.143Z,90.70
2018-12-04T05:35:47.305Z,90.60
2018-12-04T05:38:45.173Z,90.90
2018-12-04T05:41:43.019Z,90.80
2018-12-04T05:44:41.183Z,90.90
2018-12-04T05:47:39.953Z,91.10
2018-12-04T05:50:37.715Z,91.10
2018-12-04T05:53:45.285Z,90.90
2018-12-04T05:56:43.050Z,90.80
2018-12-04T05:59:40.983Z,90.50
2018-12-04T06:02:39.720Z,89.40
2018-12-04T06:05:37.427Z,87.80
2018-12-04T06:08:35.496Z,84.10
2018-12-04T06:11:33.346Z,85.10
2018-12-04T06:14:31.313Z,84.30
2018-12-04T06:17:29.163Z,80.80
2018-12-04T06:20:27.012Z,81.20
2018-12-04T06:23:26.099Z,82.50
2018-12-04T06:26:24.057Z,86.20
2018-12-04T06:29:21.920Z,89.40
2018-12-04T06:32:20.881Z,91.80
2018-12-04T06:35:18.636Z,93.90
2018-12-04T06:38:16.389Z,95.10
2018-12-04T06:41:14.141Z,95.70
2018-12-04T06:44:12.008Z,96.50
2018-12-04T06:47:09.823Z,97.00
2018-12-04T06:50:07.608Z,97.20
2018-12-04T06:53:05.463Z,97.10
2018-12-04T06:56:03.268Z,97.10
2018-12-04T06:59:01.176Z,96.60
2018-12-04T07:01:58.942Z,96.30
2018-12-04T07:04:56.682Z,96.00
2018-12-04T07:07:54.684Z,96.10
2018-12-04T07:10:52.525Z,95.80
2018-12-04T07:13:50.396Z,95.70
2018-12-04T07:16:49.144Z,95.60
2018-12-04T07:19:47.088Z,95.80
2018-12-04T07:22:45.154Z,96.10
2018-12-04T07:25:42.909Z,96.00
2018-12-04T07:28:40.885Z,95.90
2018-12-04T07:31:38.623Z,95.90
2018-12-04T07:34:37.284Z,95.80
2018-12-04T07:37:36.069Z,95.80
2018-12-04T07:40:33.700Z,95.90
2018-12-04T07:43:31.419Z,96.00
2018-12-04T07:46:29.150Z,96.20
2018-12-04T07:49:26.791Z,96.30
2018-12-04T07:52:24.565Z,96.40
2018-12-04T07:55:23.305Z,96.30
2018-12-04T07:58:21.071Z,95.90
2018-12-04T08:01:19.071Z,95.80
2018-12-04T08:04:16.910Z,95.90
2018-12-04T08:07:15.616Z,95.70
2018-12-04T08:10:13.668Z,95.60
2018-12-04T08:13:11.471Z,95.70
2018-12-04T08:16:09.210Z,95.90
2018-12-04T08:19:07.092Z,95.70
2018-12-04T08:22:05.049Z,95.90
2018-12-04T08:25:03.852Z,96.00
2018-12-04T08:28:01.761Z,95.90
2018-12-04T08:30:59.553Z,96.20
2018-12-04T08:33:57.264Z,96.30
2018-12-04T08:36:55.137Z,96.30
2018-12-04T08:39:53.198Z,96.20
2018-12-04T08:42:52.053Z,96.20
2018-12-04T08:45:50.025Z,96.40
2018-12-04T08:48:47.994Z,96.60
2018-12-04T08:51:45.708Z,96.70
2018-12-04T08:54:43.412Z,96.70
2018-12-04T08:57:41.278Z,96.40
2018-12-04T09:00:39.312Z,96.20
2018-12-04T09:03:37.148Z,96.10
2018-12-04T09:12:08.960Z,96.10
2018-12-04T09:15:06.788Z,96.00
2018-12-04T09:18:05.470Z,96.10
2018-12-04T09:21:03.228Z,96.10
2018-12-04T09:24:02.130Z,96.10
2018-12-04T09:27:05.314Z,96.20
2018-12-04T09:29:59.583Z,96.20
2018-12-04T09:32:58.336Z,96.20
2018-12-04T09:35:56.903Z,96.20
2018-12-04T09:38:54.802Z,96.30
2018-12-04T09:41:52.706Z,96.30
2018-12-04T09:44:50.470Z,96.30
2018-12-04T09:47:48.177Z,96.50
2018-12-04T09:50:46.890Z,96.20
2018-12-04T09:53:44.781Z,96.10
2018-12-04T09:56:42.702Z,96.30
2018-12-04T09:59:40.514Z,96.40
2018-12-04T10:02:39.232Z,96.20
2018-12-04T10:05:38.045Z,96.10
2018-12-04T10:08:36.933Z,96.00
2018-12-04T10:11:34.737Z,95.90
2018-12-04T10:14:32.731Z,95.70
2018-12-04T10:17:30.677Z,95.80
2018-12-04T10:20:30.366Z,95.90
2018-12-04T10:23:28.206Z,95.90
2018-12-04T10:26:27.809Z,95.40
2018-12-04T10:29:26.616Z,95.20
2018-12-04T10:32:24.223Z,95.30
2018-12-04T10:35:22.073Z,95.40
2018-12-04T10:38:19.954Z,95.60
2018-12-04T10:41:17.666Z,95.70
2018-12-04T10:44:15.352Z,95.60
2018-12-04T10:47:12.972Z,95.50
2018-12-04T10:50:10.849Z,95.40
2018-12-04T10:53:09.540Z,95.40
2018-12-04T10:56:08.350Z,95.80
2018-12-04T10:59:06.064Z,95.70
2018-12-04T11:02:10.056Z,95.40
2018-12-04T11:05:07.818Z,94.80
2018-12-04T11:08:05.668Z,94.70
2018-12-04T11:11:03.498Z,94.70
2018-12-04T11:14:01.333Z,94.80
2018-12-04T11:17:02.100Z,94.80
2018-12-04T11:19:59.857Z,94.70
2018-12-04T11:26:03.541Z,94.40
2018-12-04T11:29:02.241Z,94.20
2018-12-04T11:32:00.107Z,94.40
2018-12-04T11:34:58.930Z,94.50
2018-12-04T11:37:56.664Z,94.60
2018-12-04T11:40:55.399Z,94.60
2018-12-04T11:43:53.248Z,94.60
2018-12-04T11:46:51.002Z,94.80
2018-12-04T11:49:54.585Z,94.90
2018-12-04T11:52:53.250Z,94.70
2018-12-04T11:55:51.621Z,94.40
2018-12-04T11:58:52.993Z,94.30
2018-12-04T12:01:50.635Z,94.30
2018-12-04T12:04:48.533Z,94.40
2018-12-04T12:07:55.068Z,94.50
2018-12-04T12:11:00.041Z,94.50
2018-12-04T12:14:04.365Z,94.50
2018-12-04T12:17:02.021Z,94.60
2018-12-04T12:19:59.952Z,94.50
2018-12-04T12:22:57.797Z,93.90
2018-12-04T12:25:55.774Z,93.30
2018-12-04T12:28:53.628Z,92.60
2018-12-04T12:31:52.503Z,91.70
2018-12-04T12:34:51.317Z,92.10
2018-12-04T12:37:49.230Z,92.40
2018-12-04T12:40:47.092Z,91.90
2018-12-04T12:43:45.975Z,92.30
2018-12-04T12:46:43.918Z,92.00
2018-12-04T12:49:41.673Z,91.90
2018-12-04T12:52:39.849Z,91.60
2018-12-04T12:55:38.279Z,91.10
2018-12-04T12:58:37.012Z,91.30
2018-12-04T13:01:35.000Z,91.30
2018-12-04T13:04:32.972Z,90.90
2018-12-04T13:07:32.794Z,91.00
2018-12-04T13:10:31.471Z,91.20
2018-12-04T13:13:30.206Z,91.50
2018-12-04T13:16:28.377Z,91.80
2018-12-04T13:19:26.071Z,91.70
2018-12-04T13:22:24.051Z,92.20
2018-12-04T13:25:23.930Z,92.30
2018-12-04T13:28:21.876Z,92.20
2018-12-04T13:31:19.879Z,92.70
2018-12-04T13:34:17.860Z,92.50
2018-12-04T13:37:15.799Z,92.50
2018-12-04T13:40:14.558Z,92.50
2018-12-04T13:43:12.503Z,92.50
2018-12-04T13:46:10.606Z,92.50
2018-12-04T13:49:08.653Z,92.70
2018-12-04T13:52:06.487Z,92.70
2018-12-04T13:57:53.499Z,92.80
2018-12-04T14:00:52.212Z,92.70
2018-12-04T14:03:51.144Z,92.60
2018-12-04T14:06:48.896Z,92.80
2018-12-04T14:09:48.030Z,93.00
2018-12-04T14:12:46.449Z,93.20
2018-12-04T14:15:45.372Z,92.50
2018-12-04T14:18:44.122Z,92.10
2018-12-04T14:21:43.081Z,90.70
2018-12-04T14:24:40.920Z,90.40
2018-12-04T14:27:38.997Z,90.50
2018-12-04T14:30:36.785Z,90.30
2018-12-04T14:33:35.558Z,90.20
2018-12-04T14:36:33.651Z,89.70
2018-12-04T14:39:32.573Z,89.10
2018-12-04T14:42:30.494Z,88.50
2018-12-04T14:45:29.459Z,88.10
2018-12-04T14:48:27.469Z,86.30
2018-12-04T14:51:26.429Z,85.60
2018-12-04T14:54:25.312Z,85.90
2018-12-04T14:57:24.126Z,83.80
2018-12-04T15:00:23.116Z,83.30
2018-12-04T15:03:22.629Z,83.40
2018-12-04T15:06:21.042Z,83.30
2018-12-04T15:09:21.150Z,82.40
2018-12-04T15:12:19.981Z,83.70
2018-12-04T15:15:18.003Z,84.50
2018-12-04T15:18:16.161Z,84.50
2018-12-04T15:21:15.072Z,84.90
2018-12-04T15:24:14.073Z,85.00
2018-12-04T15:27:12.033Z,84.80
2018-12-04T15:30:10.766Z,86.20
2018-12-04T15:33:09.457Z,86.20
2018-12-04T15:36:08.360Z,87.10
2018-12-04T15:39:06.372Z,87.60
2018-12-04T15:42:04.102Z,88.40
2018-12-04T15:45:02.856Z,89.30
2018-12-04T15:48:00.842Z,89.90
2018-12-04T15:51:00.081Z,90.30
2018-12-04T15:53:58.355Z,90.30
2018-12-04T15:56:56.264Z,90.40
2018-12-04T15:59:55.258Z,90.90
2018-12-04T16:02:53.603Z,91.10
2018-12-04T16:05:51.457Z,91.50
2018-12-04T16:08:49.226Z,91.80
2018-12-04T16:11:46.977Z,91.90
2018-12-04T16:14:44.929Z,92.10
2018-12-04T16:17:42.682Z,92.30
2018-12-04T16:20:40.711Z,92.80
2018-12-04T16:23:39.628Z,93.00
2018-12-04T16:26:37.573Z,93.00
2018-12-04T16:29:35.442Z,92.90
2018-12-04T16:32:34.328Z,92.80
2018-12-04T16:35:32.265Z,92.60
2018-12-04T16:38:31.007Z,92.60
2018-12-04T16:41:28.894Z,92.70
2018-12-04T16:44:26.583Z,92.70
2018-12-04T16:47:25.331Z,92.80
2018-12-04T16:50:23.188Z,92.70
2018-12-04T16:53:21.149Z,92.90
2018-12-04T16:56:20.006Z,93.30
2018-12-04T16:59:17.953Z,93.40
2018-12-04T17:02:15.943Z,93.60
2018-12-04T17:05:13.912Z,93.80
2018-12-04T17:08:11.725Z,93.80
2018-12-04T17:11:09.607Z,93.80
2018-12-04T17:14:07.471Z,93.80
2018-12-04T17:17:05.356Z,93.80
2018-12-04T17:20:04.089Z,94.10
2018-12-04T17:23:02.123Z,93.70
2018-12-04T17:26:00.725Z,93.70
2018-12-04T17:28:58.731Z,93.80
2018-12-04T17:31:57.571Z,94.20
2018-12-04T17:34:55.662Z,93.70
2018-12-04T17:37:53.575Z,93.80
2018-12-04T17:40:51.658Z,93.80
2018-12-04T17:43:49.508Z,93.80
2018-12-04T17:46:47.290Z,93.90
2018-12-04T17:49:45.180Z,94.00
2018-12-04T17:52:43.078Z,93.90
2018-12-04T17:55:40.932Z,94.00
2018-12-04T17:58:38.997Z,93.90
2018-12-04T18:01:37.263Z,94.00
2018-12-04T18:04:35.235Z,93.90
2018-12-04T18:07:33.053Z,94.00
2018-12-04T18:10:30.917Z,93.90
2018-12-04T18:13:28.700Z,93.90
2018-12-04T18:16:26.411Z,94.10
2018-12-04T18:19:24.222Z,94.00
2018-12-04T18:22:22.218Z,94.00
2018-12-04T18:25:19.961Z,94.20
2018-12-04T18:28:18.849Z,93.90
2018-12-04T18:31:16.835Z,93.90
2018-12-04T18:34:14.645Z,93.90
2018-12-04T18:37:12.527Z,93.70
2018-12-04T18:40:10.320Z,94.00
2018-12-04T18:43:08.302Z,94.00
2018-12-04T18:46:06.216Z,94.10
2018-12-04T18:49:04.090Z,94.30
2018-12-04T18:52:01.931Z,94.40
2018-12-04T18:54:59.769Z,94.40
2018-12-04T18:57:57.525Z,94.40
2018-12-04T19:00:55.355Z,94.40
2018-12-04T19:03:53.159Z,94.50
2018-12-04T19:06:52.037Z,94.40
2018-12-04T19:09:49.912Z,94.50
2018-12-04T19:12:49.635Z,94.70
2018-12-04T19:15:47.950Z,94.70
2018-12-04T19:18:45.785Z,94.70
2018-12-04T19:21:44.485Z,94.90
2018-12-04T19:24:42.413Z,94.90
2018-12-04T19:27:41.045Z,94.90
2018-12-04T19:30:39.879Z,94.60
2018-12-04T19:33:37.641Z,94.50
2018-12-04T19:36:35.389Z,94.50
2018-12-04T19:39:33.492Z,94.50
2018-12-04T19:42:31.572Z,94.60
2018-12-04T19:45:30.165Z,94.60
2018-12-04T19:48:28.072Z,94.70
2018-12-04T19:51:26.771Z,94.80
2018-12-04T19:54:25.653Z,94.80
2018-12-04T19:57:24.358Z,94.90
2018-12-04T20:00:23.174Z,95.00
2018-12-04T20:03:21.363Z,94.90
2018-12-04T20:06:19.141Z,94.80
2018-12-04T20:09:17.123Z,94.80
2018-12-04T20:12:14.991Z,94.80
2018-12-04T20:15:12.989Z,95.00
2018-12-04T20:18:10.767Z,95.00
2018-12-04T20:21:08.744Z,94.90
2018-12-04T20:24:06.708Z,95.00
2018-12-04T20:27:04.669Z,94.90
2018-12-04T20:30:02.504Z,95.10
2018-12-04T20:33:00.582Z,94.70
2018-12-04T20:35:58.670Z,94.70
2018-12-04T20:38:56.796Z,94.90
2018-12-04T20:41:54.824Z,94.90
2018-12-04T20:44:54.002Z,94.70
2018-12-04T20:47:52.363Z,94.50
2018-12-04T20:50:52.463Z,94.30
2018-12-04T20:53:51.140Z,94.40
2018-12-04T20:56:49.933Z,94.60
2018-12-04T20:59:49.125Z,94.70
2018-12-04T21:02:47.801Z,94.70
2018-12-04T21:05:45.487Z,94.80
2018-12-04T21:08:43.906Z,95.30
2018-12-04T21:11:43.415Z,95.20
2018-12-04T21:14:41.851Z,95.60
2018-12-04T21:17:40.954Z,95.70
2018-12-04T21:20:39.941Z,95.90
2018-12-04T21:23:38.958Z,96.00
2018-12-04T21:26:37.291Z,96.10
2018-12-04T21:29:41.222Z,96.40
2018-12-04T21:32:45.198Z,96.20
2018-12-04T21:35:49.216Z,96.30
2018-12-04T21:38:53.102Z,96.10
2018-12-04T21:41:57.088Z,96.20
2018-12-04T21:48:44.978Z,96.30
2018-12-04T21:51:42.905Z,96.30
2018-12-04T21:54:40.933Z,96.30
2018-12-04T21:57:38.960Z,96.20
2018-12-04T22:00:36.883Z,96.10
2018-12-04T22:03:34.799Z,96.10
2018-12-04T22:06:32.594Z,96.00
2018-12-04T22:09:30.696Z,96.20
2018-12-04T22:12:28.660Z,95.80
2018-12-04T22:15:26.350Z,95.80
2018-12-04T22:18:25.081Z,95.80
2018-12-04T22:21:23.496Z,95.80
2018-12-04T22:24:22.364Z,95.80
2018-12-04T22:27:20.306Z,95.80
2018-12-04T22:30:19.681Z,95.90
2018-12-04T22:33:18.251Z,96.00
2018-12-04T22:36:16.247Z,96.00
2018-12-04T22:39:14.222Z,95.90
2018-12-04T22:42:12.047Z,95.80
2018-12-04T22:45:16.170Z,95.70
2018-12-04T22:48:15.137Z,95.60
2018-12-04T22:51:13.702Z,95.70
2018-12-04T22:54:11.480Z,95.90
2018-12-04T22:57:09.512Z,96.00
2018-12-04T23:00:07.336Z,96.00
2018-12-04T23:03:06.166Z,96.20
2018-12-04T23:06:04.238Z,96.20
2018-12-04T23:09:03.112Z,95.90
2018-12-04T23:12:01.090Z,95.60
2018-12-04T23:14:59.116Z,95.50
2018-12-04T23:17:56.880Z,95.40
2018-12-04T23:20:54.735Z,95.60
2018-12-04T23:23:52.699Z,96.00
2018-12-04T23:26:50.636Z,96.20
2018-12-04T23:29:48.734Z,96.40
2018-12-04T23:32:46.572Z,96.80
2018-12-04T23:35:44.519Z,96.50
2018-12-04T23:38:42.483Z,96.60
2018-12-04T23:41:42.686Z,96.90
2018-12-04T23:44:41.095Z,96.60
2018-12-04T23:47:38.927Z,96.60
2018-12-04T23:50:36.872Z,96.50
2018-12-04T23:53:34.805Z,96.60
2018-12-04T23:56:32.605Z,96.90
2018-12-04T23:59:30.430Z,96.60
